sensor_id;sensor_type;location;lat;lon;timestamp;P1;durP1;ratioP1;P2;durP2;ratioP2
11598;SDS011;5855;48.840;9.188;2022-07-23T00:00:21;5.45;;;4.13;;
11598;SDS011;5855;48.840;9.188;2022-07-23T00:02:48;4.65;;;3.85;;
11598;SDS011;5855;48.840;9.188;2022-07-23T00:05:15;4.78;;;3.60;;
11598;SDS011;5855;48.840;9.188;2022-07-23T00:07:43;6.20;;;4.10;;
11598;SDS011;5855;48.840;9.188;2022-07-23T00:10:10;4.35;;;3.60;;
11598;SDS011;5855;48.840;9.188;2022-07-23T00:12:37;6.03;;;3.85;;
11598;SDS011;5855;48.840;9.188;2022-07-23T00:15:06;5.45;;;4.82;;
11598;SDS011;5855;48.840;9.188;2022-07-23T00:17:34;6.25;;;4.60;;
11598;SDS011;5855;48.840;9.188;2022-07-23T00:20:01;4.55;;;4.15;;
11598;SDS011;5855;48.840;9.188;2022-07-23T00:22:27;5.22;;;4.30;;
11598;SDS011;5855;48.840;9.188;2022-07-23T00:24:56;6.10;;;4.20;;
11598;SDS011;5855;48.840;9.188;2022-07-23T00:27:23;4.47;;;3.55;;
11598;SDS011;5855;48.840;9.188;2022-07-23T00:29:50;5.05;;;4.25;;
11598;SDS011;5855;48.840;9.188;2022-07-23T00:32:17;4.60;;;3.60;;
11598;SDS011;5855;48.840;9.188;2022-07-23T00:34:43;4.63;;;3.70;;
11598;SDS011;5855;48.840;9.188;2022-07-23T00:37:10;7.80;;;4.05;;
11598;SDS011;5855;48.840;9.188;2022-07-23T00:39:37;4.13;;;3.55;;
11598;SDS011;5855;48.840;9.188;2022-07-23T00:42:05;3.95;;;3.60;;
11598;SDS011;5855;48.840;9.188;2022-07-23T00:44:32;4.65;;;3.63;;
11598;SDS011;5855;48.840;9.188;2022-07-23T00:46:59;4.18;;;3.72;;
11598;SDS011;5855;48.840;9.188;2022-07-23T00:49:28;3.80;;;3.50;;
11598;SDS011;5855;48.840;9.188;2022-07-23T00:51:56;3.63;;;3.20;;
11598;SDS011;5855;48.840;9.188;2022-07-23T00:54:24;5.20;;;3.53;;
11598;SDS011;5855;48.840;9.188;2022-07-23T00:56:53;3.67;;;3.38;;
11598;SDS011;5855;48.840;9.188;2022-07-23T00:59:21;3.85;;;3.45;;
11598;SDS011;5855;48.840;9.188;2022-07-23T01:01:48;5.63;;;3.72;;
11598;SDS011;5855;48.840;9.188;2022-07-23T01:04:15;4.53;;;3.90;;
11598;SDS011;5855;48.840;9.188;2022-07-23T01:06:42;3.58;;;3.28;;
11598;SDS011;5855;48.840;9.188;2022-07-23T01:09:10;4.10;;;3.80;;
11598;SDS011;5855;48.840;9.188;2022-07-23T01:11:37;4.18;;;3.78;;
11598;SDS011;5855;48.840;9.188;2022-07-23T01:14:08;4.97;;;3.55;;
11598;SDS011;5855;48.840;9.188;2022-07-23T01:16:37;5.30;;;3.60;;
11598;SDS011;5855;48.840;9.188;2022-07-23T01:19:04;5.90;;;3.60;;
11598;SDS011;5855;48.840;9.188;2022-07-23T01:21:32;5.13;;;3.88;;
11598;SDS011;5855;48.840;9.188;2022-07-23T01:24:03;3.92;;;3.10;;
11598;SDS011;5855;48.840;9.188;2022-07-23T01:26:31;3.75;;;3.38;;
11598;SDS011;5855;48.840;9.188;2022-07-23T01:28:58;5.25;;;3.70;;
11598;SDS011;5855;48.840;9.188;2022-07-23T01:31:25;4.18;;;3.20;;
11598;SDS011;5855;48.840;9.188;2022-07-23T01:33:52;4.05;;;3.65;;
11598;SDS011;5855;48.840;9.188;2022-07-23T01:36:19;4.20;;;3.83;;
11598;SDS011;5855;48.840;9.188;2022-07-23T01:38:46;4.20;;;3.80;;
11598;SDS011;5855;48.840;9.188;2022-07-23T01:41:14;4.65;;;3.70;;
11598;SDS011;5855;48.840;9.188;2022-07-23T01:43:41;4.10;;;3.70;;
11598;SDS011;5855;48.840;9.188;2022-07-23T01:46:08;4.00;;;3.63;;
11598;SDS011;5855;48.840;9.188;2022-07-23T01:48:35;3.83;;;3.53;;
11598;SDS011;5855;48.840;9.188;2022-07-23T01:51:02;3.80;;;3.45;;
11598;SDS011;5855;48.840;9.188;2022-07-23T01:53:29;4.55;;;3.50;;
11598;SDS011;5855;48.840;9.188;2022-07-23T01:55:57;5.07;;;3.80;;
11598;SDS011;5855;48.840;9.188;2022-07-23T01:58:25;4.13;;;3.83;;
11598;SDS011;5855;48.840;9.188;2022-07-23T02:00:52;4.10;;;3.80;;
11598;SDS011;5855;48.840;9.188;2022-07-23T02:03:20;4.05;;;3.65;;
11598;SDS011;5855;48.840;9.188;2022-07-23T02:05:47;3.63;;;3.30;;
11598;SDS011;5855;48.840;9.188;2022-07-23T02:08:14;3.60;;;3.30;;
11598;SDS011;5855;48.840;9.188;2022-07-23T02:10:41;3.60;;;3.30;;
11598;SDS011;5855;48.840;9.188;2022-07-23T02:13:07;4.45;;;3.90;;
11598;SDS011;5855;48.840;9.188;2022-07-23T02:15:36;5.03;;;3.88;;
11598;SDS011;5855;48.840;9.188;2022-07-23T02:18:03;4.35;;;3.75;;
11598;SDS011;5855;48.840;9.188;2022-07-23T02:20:30;4.43;;;4.03;;
11598;SDS011;5855;48.840;9.188;2022-07-23T02:22:57;3.72;;;3.40;;
11598;SDS011;5855;48.840;9.188;2022-07-23T02:25:23;3.92;;;3.60;;
11598;SDS011;5855;48.840;9.188;2022-07-23T02:27:50;4.38;;;4.07;;
11598;SDS011;5855;48.840;9.188;2022-07-23T02:30:17;4.30;;;3.90;;
11598;SDS011;5855;48.840;9.188;2022-07-23T02:32:45;4.00;;;3.60;;
11598;SDS011;5855;48.840;9.188;2022-07-23T02:35:12;3.92;;;3.60;;
11598;SDS011;5855;48.840;9.188;2022-07-23T02:37:39;3.80;;;3.50;;
11598;SDS011;5855;48.840;9.188;2022-07-23T02:40:06;3.80;;;3.50;;
11598;SDS011;5855;48.840;9.188;2022-07-23T02:42:34;4.32;;;3.92;;
11598;SDS011;5855;48.840;9.188;2022-07-23T02:45:00;3.95;;;3.58;;
11598;SDS011;5855;48.840;9.188;2022-07-23T02:47:27;4.50;;;3.30;;
11598;SDS011;5855;48.840;9.188;2022-07-23T02:49:55;4.25;;;3.85;;
11598;SDS011;5855;48.840;9.188;2022-07-23T02:52:22;4.28;;;3.83;;
11598;SDS011;5855;48.840;9.188;2022-07-23T02:54:49;6.00;;;4.25;;
11598;SDS011;5855;48.840;9.188;2022-07-23T02:57:16;4.50;;;4.05;;
11598;SDS011;5855;48.840;9.188;2022-07-23T02:59:43;4.32;;;3.90;;
11598;SDS011;5855;48.840;9.188;2022-07-23T03:02:09;4.57;;;4.18;;
11598;SDS011;5855;48.840;9.188;2022-07-23T03:04:36;5.38;;;4.43;;
11598;SDS011;5855;48.840;9.188;2022-07-23T03:07:04;5.03;;;4.15;;
11598;SDS011;5855;48.840;9.188;2022-07-23T03:09:31;4.55;;;3.90;;
11598;SDS011;5855;48.840;9.188;2022-07-23T03:11:58;4.20;;;3.88;;
11598;SDS011;5855;48.840;9.188;2022-07-23T03:14:25;5.68;;;4.13;;
11598;SDS011;5855;48.840;9.188;2022-07-23T03:16:52;5.20;;;4.20;;
11598;SDS011;5855;48.840;9.188;2022-07-23T03:19:19;4.72;;;4.25;;
11598;SDS011;5855;48.840;9.188;2022-07-23T03:21:46;5.13;;;3.90;;
11598;SDS011;5855;48.840;9.188;2022-07-23T03:24:14;4.40;;;4.00;;
11598;SDS011;5855;48.840;9.188;2022-07-23T03:26:42;4.32;;;3.92;;
11598;SDS011;5855;48.840;9.188;2022-07-23T03:29:09;4.40;;;4.00;;
11598;SDS011;5855;48.840;9.188;2022-07-23T03:31:36;4.85;;;4.18;;
11598;SDS011;5855;48.840;9.188;2022-07-23T03:34:03;4.93;;;3.90;;
11598;SDS011;5855;48.840;9.188;2022-07-23T03:36:30;4.90;;;3.80;;
11598;SDS011;5855;48.840;9.188;2022-07-23T03:38:57;5.38;;;4.00;;
11598;SDS011;5855;48.840;9.188;2022-07-23T03:41:25;4.95;;;3.75;;
11598;SDS011;5855;48.840;9.188;2022-07-23T03:43:52;3.97;;;3.60;;
11598;SDS011;5855;48.840;9.188;2022-07-23T03:46:19;6.22;;;5.15;;
11598;SDS011;5855;48.840;9.188;2022-07-23T03:48:45;4.75;;;4.10;;
11598;SDS011;5855;48.840;9.188;2022-07-23T03:51:12;5.35;;;4.20;;
11598;SDS011;5855;48.840;9.188;2022-07-23T03:53:39;4.63;;;3.97;;
11598;SDS011;5855;48.840;9.188;2022-07-23T03:56:06;6.70;;;4.18;;
11598;SDS011;5855;48.840;9.188;2022-07-23T03:58:34;4.00;;;3.60;;
11598;SDS011;5855;48.840;9.188;2022-07-23T04:01:01;4.07;;;3.72;;
11598;SDS011;5855;48.840;9.188;2022-07-23T04:03:28;4.30;;;3.90;;
11598;SDS011;5855;48.840;9.188;2022-07-23T04:05:55;4.55;;;3.75;;
11598;SDS011;5855;48.840;9.188;2022-07-23T04:08:22;4.32;;;3.95;;
11598;SDS011;5855;48.840;9.188;2022-07-23T04:10:49;4.03;;;3.72;;
11598;SDS011;5855;48.840;9.188;2022-07-23T04:13:16;4.55;;;4.03;;
11598;SDS011;5855;48.840;9.188;2022-07-23T04:15:44;4.57;;;4.15;;
11598;SDS011;5855;48.840;9.188;2022-07-23T04:18:11;4.30;;;3.80;;
11598;SDS011;5855;48.840;9.188;2022-07-23T04:20:38;4.20;;;3.88;;
11598;SDS011;5855;48.840;9.188;2022-07-23T04:23:04;4.40;;;4.00;;
11598;SDS011;5855;48.840;9.188;2022-07-23T04:25:31;4.15;;;3.75;;
11598;SDS011;5855;48.840;9.188;2022-07-23T04:27:58;4.38;;;3.97;;
11598;SDS011;5855;48.840;9.188;2022-07-23T04:30:25;4.70;;;4.13;;
11598;SDS011;5855;48.840;9.188;2022-07-23T04:32:53;4.50;;;4.10;;
11598;SDS011;5855;48.840;9.188;2022-07-23T04:35:20;5.10;;;4.18;;
11598;SDS011;5855;48.840;9.188;2022-07-23T04:37:47;4.82;;;4.25;;
11598;SDS011;5855;48.840;9.188;2022-07-23T04:40:14;4.15;;;3.83;;
11598;SDS011;5855;48.840;9.188;2022-07-23T04:42:41;4.75;;;4.20;;
11598;SDS011;5855;48.840;9.188;2022-07-23T04:45:08;4.60;;;4.20;;
11598;SDS011;5855;48.840;9.188;2022-07-23T04:47:35;6.43;;;4.32;;
11598;SDS011;5855;48.840;9.188;2022-07-23T04:50:04;4.50;;;4.10;;
11598;SDS011;5855;48.840;9.188;2022-07-23T04:52:31;4.82;;;3.95;;
11598;SDS011;5855;48.840;9.188;2022-07-23T04:54:58;4.35;;;3.95;;
11598;SDS011;5855;48.840;9.188;2022-07-23T04:57:24;4.30;;;3.90;;
11598;SDS011;5855;48.840;9.188;2022-07-23T04:59:51;4.47;;;4.07;;
11598;SDS011;5855;48.840;9.188;2022-07-23T05:02:18;4.38;;;3.97;;
11598;SDS011;5855;48.840;9.188;2022-07-23T05:04:45;5.43;;;3.85;;
11598;SDS011;5855;48.840;9.188;2022-07-23T05:07:13;4.78;;;4.00;;
11598;SDS011;5855;48.840;9.188;2022-07-23T05:09:40;4.28;;;3.88;;
11598;SDS011;5855;48.840;9.188;2022-07-23T05:12:07;4.22;;;3.70;;
11598;SDS011;5855;48.840;9.188;2022-07-23T05:14:34;4.75;;;3.85;;
11598;SDS011;5855;48.840;9.188;2022-07-23T05:17:01;4.53;;;4.00;;
11598;SDS011;5855;48.840;9.188;2022-07-23T05:19:28;4.40;;;3.70;;
11598;SDS011;5855;48.840;9.188;2022-07-23T05:21:55;4.18;;;3.88;;
11598;SDS011;5855;48.840;9.188;2022-07-23T05:24:23;4.63;;;4.22;;
11598;SDS011;5855;48.840;9.188;2022-07-23T05:26:50;4.78;;;4.03;;
11598;SDS011;5855;48.840;9.188;2022-07-23T05:29:17;4.55;;;4.13;;
11598;SDS011;5855;48.840;9.188;2022-07-23T05:31:44;5.55;;;4.15;;
11598;SDS011;5855;48.840;9.188;2022-07-23T05:34:11;4.30;;;3.90;;
11598;SDS011;5855;48.840;9.188;2022-07-23T05:36:38;5.13;;;4.10;;
11598;SDS011;5855;48.840;9.188;2022-07-23T05:39:05;5.18;;;4.35;;
11598;SDS011;5855;48.840;9.188;2022-07-23T05:41:33;4.25;;;3.85;;
11598;SDS011;5855;48.840;9.188;2022-07-23T05:44:00;5.00;;;4.22;;
11598;SDS011;5855;48.840;9.188;2022-07-23T05:46:27;4.30;;;4.00;;
11598;SDS011;5855;48.840;9.188;2022-07-23T05:48:54;4.50;;;4.10;;
11598;SDS011;5855;48.840;9.188;2022-07-23T05:51:20;5.25;;;4.13;;
11598;SDS011;5855;48.840;9.188;2022-07-23T05:53:48;6.03;;;4.25;;
11598;SDS011;5855;48.840;9.188;2022-07-23T05:56:15;4.65;;;4.18;;
11598;SDS011;5855;48.840;9.188;2022-07-23T05:58:43;4.50;;;4.10;;
11598;SDS011;5855;48.840;9.188;2022-07-23T06:01:10;5.15;;;4.00;;
11598;SDS011;5855;48.840;9.188;2022-07-23T06:03:37;4.60;;;4.18;;
11598;SDS011;5855;48.840;9.188;2022-07-23T06:06:04;5.07;;;4.00;;
11598;SDS011;5855;48.840;9.188;2022-07-23T06:08:32;4.82;;;4.10;;
11598;SDS011;5855;48.840;9.188;2022-07-23T06:10:59;5.32;;;4.45;;
11598;SDS011;5855;48.840;9.188;2022-07-23T06:13:26;5.35;;;4.85;;
11598;SDS011;5855;48.840;9.188;2022-07-23T06:15:54;6.55;;;4.68;;
11598;SDS011;5855;48.840;9.188;2022-07-23T06:18:21;4.82;;;4.38;;
11598;SDS011;5855;48.840;9.188;2022-07-23T06:20:48;4.60;;;4.20;;
11598;SDS011;5855;48.840;9.188;2022-07-23T06:23:15;6.05;;;4.60;;
11598;SDS011;5855;48.840;9.188;2022-07-23T06:25:42;4.80;;;4.20;;
11598;SDS011;5855;48.840;9.188;2022-07-23T06:28:09;5.05;;;4.60;;
11598;SDS011;5855;48.840;9.188;2022-07-23T06:30:36;4.43;;;3.67;;
11598;SDS011;5855;48.840;9.188;2022-07-23T06:35:51;5.75;;;3.90;;
11598;SDS011;5855;48.840;9.188;2022-07-23T06:38:18;4.63;;;4.22;;
11598;SDS011;5855;48.840;9.188;2022-07-23T06:40:44;5.80;;;4.70;;
11598;SDS011;5855;48.840;9.188;2022-07-23T06:43:11;5.15;;;4.40;;
11598;SDS011;5855;48.840;9.188;2022-07-23T06:45:38;5.28;;;4.63;;
11598;SDS011;5855;48.840;9.188;2022-07-23T06:48:05;6.80;;;4.32;;
11598;SDS011;5855;48.840;9.188;2022-07-23T06:50:33;4.97;;;4.03;;
11598;SDS011;5855;48.840;9.188;2022-07-23T06:53:00;5.35;;;4.30;;
11598;SDS011;5855;48.840;9.188;2022-07-23T06:55:27;5.10;;;4.30;;
11598;SDS011;5855;48.840;9.188;2022-07-23T06:57:54;4.53;;;4.03;;
11598;SDS011;5855;48.840;9.188;2022-07-23T07:00:21;5.88;;;4.35;;
11598;SDS011;5855;48.840;9.188;2022-07-23T07:02:48;5.28;;;4.75;;
11598;SDS011;5855;48.840;9.188;2022-07-23T07:05:15;5.43;;;4.50;;
11598;SDS011;5855;48.840;9.188;2022-07-23T07:07:43;5.53;;;4.68;;
11598;SDS011;5855;48.840;9.188;2022-07-23T07:10:10;5.00;;;4.50;;
11598;SDS011;5855;48.840;9.188;2022-07-23T07:12:36;6.78;;;4.90;;
11598;SDS011;5855;48.840;9.188;2022-07-23T07:15:06;5.55;;;4.85;;
11598;SDS011;5855;48.840;9.188;2022-07-23T07:17:33;7.22;;;5.00;;
11598;SDS011;5855;48.840;9.188;2022-07-23T07:20:00;7.28;;;5.00;;
11598;SDS011;5855;48.840;9.188;2022-07-23T07:22:27;5.63;;;5.00;;
11598;SDS011;5855;48.840;9.188;2022-07-23T07:24:55;5.32;;;4.53;;
11598;SDS011;5855;48.840;9.188;2022-07-23T07:27:22;5.97;;;4.60;;
11598;SDS011;5855;48.840;9.188;2022-07-23T07:29:49;5.55;;;5.05;;
11598;SDS011;5855;48.840;9.188;2022-07-23T07:32:16;5.45;;;4.72;;
11598;SDS011;5855;48.840;9.188;2022-07-23T07:34:42;5.60;;;5.00;;
11598;SDS011;5855;48.840;9.188;2022-07-23T07:37:09;6.38;;;5.60;;
11598;SDS011;5855;48.840;9.188;2022-07-23T07:39:40;6.15;;;5.55;;
11598;SDS011;5855;48.840;9.188;2022-07-23T07:42:08;5.97;;;5.38;;
11598;SDS011;5855;48.840;9.188;2022-07-23T07:44:37;6.63;;;5.43;;
11598;SDS011;5855;48.840;9.188;2022-07-23T07:47:04;6.05;;;5.45;;
11598;SDS011;5855;48.840;9.188;2022-07-23T07:49:32;5.80;;;5.22;;
11598;SDS011;5855;48.840;9.188;2022-07-23T07:51:59;8.80;;;5.57;;
11598;SDS011;5855;48.840;9.188;2022-07-23T07:54:26;7.50;;;5.60;;
11598;SDS011;5855;48.840;9.188;2022-07-23T07:56:53;6.10;;;5.50;;
11598;SDS011;5855;48.840;9.188;2022-07-23T07:59:22;5.85;;;5.25;;
11598;SDS011;5855;48.840;9.188;2022-07-23T08:01:48;6.07;;;5.38;;
11598;SDS011;5855;48.840;9.188;2022-07-23T08:04:15;5.80;;;5.30;;
11598;SDS011;5855;48.840;9.188;2022-07-23T08:06:42;5.00;;;4.60;;
11598;SDS011;5855;48.840;9.188;2022-07-23T08:09:09;5.90;;;5.32;;
11598;SDS011;5855;48.840;9.188;2022-07-23T08:11:36;5.50;;;5.03;;
11598;SDS011;5855;48.840;9.188;2022-07-23T08:14:03;6.47;;;4.70;;
11598;SDS011;5855;48.840;9.188;2022-07-23T08:16:35;5.07;;;4.57;;
11598;SDS011;5855;48.840;9.188;2022-07-23T08:19:02;5.00;;;4.50;;
11598;SDS011;5855;48.840;9.188;2022-07-23T08:21:29;5.22;;;4.72;;
11598;SDS011;5855;48.840;9.188;2022-07-23T08:23:56;5.80;;;5.05;;
11598;SDS011;5855;48.840;9.188;2022-07-23T08:26:23;4.95;;;4.55;;
11598;SDS011;5855;48.840;9.188;2022-07-23T08:28:50;5.10;;;4.50;;
11598;SDS011;5855;48.840;9.188;2022-07-23T08:31:17;6.43;;;4.45;;
11598;SDS011;5855;48.840;9.188;2022-07-23T08:33:45;5.03;;;4.60;;
11598;SDS011;5855;48.840;9.188;2022-07-23T08:36:12;4.65;;;3.92;;
11598;SDS011;5855;48.840;9.188;2022-07-23T08:38:39;4.43;;;4.03;;
11598;SDS011;5855;48.840;9.188;2022-07-23T08:41:05;4.82;;;4.15;;
11598;SDS011;5855;48.840;9.188;2022-07-23T08:43:34;4.20;;;3.80;;
11598;SDS011;5855;48.840;9.188;2022-07-23T08:46:01;4.20;;;3.80;;
11598;SDS011;5855;48.840;9.188;2022-07-23T08:48:31;4.07;;;3.67;;
11598;SDS011;5855;48.840;9.188;2022-07-23T08:51:02;4.35;;;3.95;;
11598;SDS011;5855;48.840;9.188;2022-07-23T08:53:30;4.10;;;3.70;;
11598;SDS011;5855;48.840;9.188;2022-07-23T08:56:00;3.58;;;3.28;;
11598;SDS011;5855;48.840;9.188;2022-07-23T08:58:29;3.67;;;3.38;;
11598;SDS011;5855;48.840;9.188;2022-07-23T09:00:56;3.80;;;3.50;;
11598;SDS011;5855;48.840;9.188;2022-07-23T09:03:24;3.70;;;3.40;;
11598;SDS011;5855;48.840;9.188;2022-07-23T09:05:53;4.07;;;3.63;;
11598;SDS011;5855;48.840;9.188;2022-07-23T09:08:24;3.55;;;3.25;;
11598;SDS011;5855;48.840;9.188;2022-07-23T09:10:53;3.80;;;3.50;;
11598;SDS011;5855;48.840;9.188;2022-07-23T09:16:08;3.80;;;3.40;;
11598;SDS011;5855;48.840;9.188;2022-07-23T09:18:38;3.78;;;3.47;;
11598;SDS011;5855;48.840;9.188;2022-07-23T09:21:13;3.83;;;3.50;;
11598;SDS011;5855;48.840;9.188;2022-07-23T09:23:43;3.60;;;3.30;;
11598;SDS011;5855;48.840;9.188;2022-07-23T09:26:21;3.90;;;3.50;;
11598;SDS011;5855;48.840;9.188;2022-07-23T09:28:59;4.10;;;3.70;;
11598;SDS011;5855;48.840;9.188;2022-07-23T09:31:32;4.15;;;3.72;;
11598;SDS011;5855;48.840;9.188;2022-07-23T09:34:07;4.18;;;3.78;;
11598;SDS011;5855;48.840;9.188;2022-07-23T09:36:36;3.75;;;3.45;;
11598;SDS011;5855;48.840;9.188;2022-07-23T09:39:06;3.47;;;3.17;;
11598;SDS011;5855;48.840;9.188;2022-07-23T09:41:34;3.67;;;3.35;;
11598;SDS011;5855;48.840;9.188;2022-07-23T09:44:07;3.75;;;3.45;;
11598;SDS011;5855;48.840;9.188;2022-07-23T09:46:35;3.55;;;3.25;;
11598;SDS011;5855;48.840;9.188;2022-07-23T09:49:09;3.65;;;3.35;;
11598;SDS011;5855;48.840;9.188;2022-07-23T09:51:43;3.25;;;3.00;;
11598;SDS011;5855;48.840;9.188;2022-07-23T09:54:21;3.53;;;3.22;;
11598;SDS011;5855;48.840;9.188;2022-07-23T09:56:56;3.70;;;3.40;;
11598;SDS011;5855;48.840;9.188;2022-07-23T09:59:25;3.17;;;2.88;;
11598;SDS011;5855;48.840;9.188;2022-07-23T10:01:53;3.55;;;3.25;;
11598;SDS011;5855;48.840;9.188;2022-07-23T10:04:22;3.22;;;2.92;;
11598;SDS011;5855;48.840;9.188;2022-07-23T10:06:51;3.50;;;3.20;;
11598;SDS011;5855;48.840;9.188;2022-07-23T10:09:23;3.08;;;2.88;;
11598;SDS011;5855;48.840;9.188;2022-07-23T10:11:52;3.75;;;3.20;;
11598;SDS011;5855;48.840;9.188;2022-07-23T10:14:23;3.53;;;3.30;;
11598;SDS011;5855;48.840;9.188;2022-07-23T10:16:52;3.10;;;2.80;;
11598;SDS011;5855;48.840;9.188;2022-07-23T10:19:19;3.30;;;3.00;;
11598;SDS011;5855;48.840;9.188;2022-07-23T10:21:47;3.10;;;2.80;;
11598;SDS011;5855;48.840;9.188;2022-07-23T10:24:19;3.10;;;2.80;;
11598;SDS011;5855;48.840;9.188;2022-07-23T10:26:58;3.40;;;3.08;;
11598;SDS011;5855;48.840;9.188;2022-07-23T10:29:35;3.13;;;2.83;;
11598;SDS011;5855;48.840;9.188;2022-07-23T10:32:15;2.97;;;2.78;;
11598;SDS011;5855;48.840;9.188;2022-07-23T10:34:51;3.28;;;3.08;;
11598;SDS011;5855;48.840;9.188;2022-07-23T10:37:26;3.42;;;3.08;;
11598;SDS011;5855;48.840;9.188;2022-07-23T10:40:13;3.60;;;3.15;;
11598;SDS011;5855;48.840;9.188;2022-07-23T10:42:42;3.15;;;2.95;;
11598;SDS011;5855;48.840;9.188;2022-07-23T10:45:22;3.35;;;3.00;;
11598;SDS011;5855;48.840;9.188;2022-07-23T10:47:54;3.40;;;3.10;;
11598;SDS011;5855;48.840;9.188;2022-07-23T10:50:37;3.67;;;3.38;;
11598;SDS011;5855;48.840;9.188;2022-07-23T10:53:08;3.35;;;3.15;;
11598;SDS011;5855;48.840;9.188;2022-07-23T10:55:51;3.25;;;3.05;;
11598;SDS011;5855;48.840;9.188;2022-07-23T10:58:23;4.65;;;3.33;;
11598;SDS011;5855;48.840;9.188;2022-07-23T11:01:31;3.42;;;3.13;;
11598;SDS011;5855;48.840;9.188;2022-07-23T11:03:59;3.58;;;3.28;;
11598;SDS011;5855;48.840;9.188;2022-07-23T11:09:26;3.38;;;3.08;;
11598;SDS011;5855;48.840;9.188;2022-07-23T11:14:59;2.80;;;2.60;;
11598;SDS011;5855;48.840;9.188;2022-07-23T11:17:29;3.22;;;2.90;;
11598;SDS011;5855;48.840;9.188;2022-07-23T11:20:19;2.78;;;2.58;;
11598;SDS011;5855;48.840;9.188;2022-07-23T11:22:48;3.33;;;2.95;;
11598;SDS011;5855;48.840;9.188;2022-07-23T11:28:09;3.30;;;2.80;;
11598;SDS011;5855;48.840;9.188;2022-07-23T11:30:40;3.15;;;2.88;;
11598;SDS011;5855;48.840;9.188;2022-07-23T11:33:16;3.30;;;2.97;;
11598;SDS011;5855;48.840;9.188;2022-07-23T11:35:45;3.65;;;3.03;;
11598;SDS011;5855;48.840;9.188;2022-07-23T11:38:13;3.25;;;2.95;;
11598;SDS011;5855;48.840;9.188;2022-07-23T11:40:43;3.25;;;3.05;;
11598;SDS011;5855;48.840;9.188;2022-07-23T11:43:12;3.10;;;2.90;;
11598;SDS011;5855;48.840;9.188;2022-07-23T11:45:41;3.47;;;3.17;;
11598;SDS011;5855;48.840;9.188;2022-07-23T11:48:14;4.28;;;3.13;;
11598;SDS011;5855;48.840;9.188;2022-07-23T11:50:43;3.88;;;3.50;;
11598;SDS011;5855;48.840;9.188;2022-07-23T11:53:10;3.70;;;3.40;;
11598;SDS011;5855;48.840;9.188;2022-07-23T11:55:37;3.80;;;3.40;;
11598;SDS011;5855;48.840;9.188;2022-07-23T11:58:04;3.75;;;3.38;;
11598;SDS011;5855;48.840;9.188;2022-07-23T12:00:31;3.47;;;3.25;;
11598;SDS011;5855;48.840;9.188;2022-07-23T12:03:01;5.78;;;3.47;;
11598;SDS011;5855;48.840;9.188;2022-07-23T12:05:31;3.50;;;3.20;;
11598;SDS011;5855;48.840;9.188;2022-07-23T12:08:00;3.28;;;2.97;;
11598;SDS011;5855;48.840;9.188;2022-07-23T12:10:29;3.40;;;3.10;;
11598;SDS011;5855;48.840;9.188;2022-07-23T12:13:00;3.42;;;3.13;;
11598;SDS011;5855;48.840;9.188;2022-07-23T12:15:30;3.35;;;2.95;;
11598;SDS011;5855;48.840;9.188;2022-07-23T12:17:59;3.13;;;2.83;;
11598;SDS011;5855;48.840;9.188;2022-07-23T12:20:28;3.17;;;2.90;;
11598;SDS011;5855;48.840;9.188;2022-07-23T12:22:58;3.50;;;3.20;;
11598;SDS011;5855;48.840;9.188;2022-07-23T12:25:27;3.30;;;3.00;;
11598;SDS011;5855;48.840;9.188;2022-07-23T12:27:59;3.70;;;3.17;;
11598;SDS011;5855;48.840;9.188;2022-07-23T12:30:29;3.10;;;2.80;;
11598;SDS011;5855;48.840;9.188;2022-07-23T12:32:58;2.90;;;2.60;;
11598;SDS011;5855;48.840;9.188;2022-07-23T12:35:31;3.05;;;2.75;;
11598;SDS011;5855;48.840;9.188;2022-07-23T12:38:02;3.15;;;2.85;;
11598;SDS011;5855;48.840;9.188;2022-07-23T12:40:31;3.35;;;2.95;;
11598;SDS011;5855;48.840;9.188;2022-07-23T12:43:01;3.20;;;2.90;;
11598;SDS011;5855;48.840;9.188;2022-07-23T12:45:42;3.53;;;2.97;;
11598;SDS011;5855;48.840;9.188;2022-07-23T12:48:23;3.67;;;3.38;;
11598;SDS011;5855;48.840;9.188;2022-07-23T12:50:54;3.70;;;3.40;;
11598;SDS011;5855;48.840;9.188;2022-07-23T12:53:23;3.10;;;2.90;;
11598;SDS011;5855;48.840;9.188;2022-07-23T12:55:57;3.65;;;3.35;;
11598;SDS011;5855;48.840;9.188;2022-07-23T12:58:26;3.60;;;3.28;;
11598;SDS011;5855;48.840;9.188;2022-07-23T13:01:00;3.58;;;3.28;;
11598;SDS011;5855;48.840;9.188;2022-07-23T13:03:32;3.67;;;3.38;;
11598;SDS011;5855;48.840;9.188;2022-07-23T13:06:03;6.28;;;3.30;;
11598;SDS011;5855;48.840;9.188;2022-07-23T13:08:31;3.63;;;3.20;;
11598;SDS011;5855;48.840;9.188;2022-07-23T13:11:00;5.03;;;3.00;;
11598;SDS011;5855;48.840;9.188;2022-07-23T13:13:29;4.45;;;3.30;;
11598;SDS011;5855;48.840;9.188;2022-07-23T13:15:57;4.53;;;3.35;;
11598;SDS011;5855;48.840;9.188;2022-07-23T13:18:25;3.90;;;3.50;;
11598;SDS011;5855;48.840;9.188;2022-07-23T13:20:54;3.90;;;3.50;;
11598;SDS011;5855;48.840;9.188;2022-07-23T13:23:21;4.03;;;3.70;;
11598;SDS011;5855;48.840;9.188;2022-07-23T13:25:49;4.10;;;3.72;;
11598;SDS011;5855;48.840;9.188;2022-07-23T13:28:16;3.92;;;3.63;;
11598;SDS011;5855;48.840;9.188;2022-07-23T13:30:44;3.97;;;3.60;;
11598;SDS011;5855;48.840;9.188;2022-07-23T13:33:12;4.70;;;4.05;;
11598;SDS011;5855;48.840;9.188;2022-07-23T13:35:39;5.32;;;4.00;;
11598;SDS011;5855;48.840;9.188;2022-07-23T13:38:07;4.10;;;3.70;;
11598;SDS011;5855;48.840;9.188;2022-07-23T13:40:35;4.32;;;3.92;;
11598;SDS011;5855;48.840;9.188;2022-07-23T13:43:05;4.28;;;3.88;;
11598;SDS011;5855;48.840;9.188;2022-07-23T13:45:32;3.90;;;3.60;;
11598;SDS011;5855;48.840;9.188;2022-07-23T13:48:02;4.07;;;3.78;;
11598;SDS011;5855;48.840;9.188;2022-07-23T13:50:30;3.60;;;3.20;;
11598;SDS011;5855;48.840;9.188;2022-07-23T13:52:57;4.10;;;3.70;;
11598;SDS011;5855;48.840;9.188;2022-07-23T13:55:27;5.65;;;2.97;;
11598;SDS011;5855;48.840;9.188;2022-07-23T13:57:54;3.30;;;3.00;;
11598;SDS011;5855;48.840;9.188;2022-07-23T14:00:21;3.95;;;3.65;;
11598;SDS011;5855;48.840;9.188;2022-07-23T14:02:48;4.40;;;3.15;;
11598;SDS011;5855;48.840;9.188;2022-07-23T14:05:15;3.53;;;3.20;;
11598;SDS011;5855;48.840;9.188;2022-07-23T14:07:42;3.88;;;3.58;;
11598;SDS011;5855;48.840;9.188;2022-07-23T14:10:10;3.75;;;3.45;;
11598;SDS011;5855;48.840;9.188;2022-07-23T14:12:38;3.40;;;3.10;;
11598;SDS011;5855;48.840;9.188;2022-07-23T14:15:06;3.30;;;3.00;;
11598;SDS011;5855;48.840;9.188;2022-07-23T14:17:34;3.20;;;2.95;;
11598;SDS011;5855;48.840;9.188;2022-07-23T14:20:02;3.60;;;2.80;;
11598;SDS011;5855;48.840;9.188;2022-07-23T14:22:30;2.90;;;2.60;;
11598;SDS011;5855;48.840;9.188;2022-07-23T14:24:58;2.70;;;2.47;;
11598;SDS011;5855;48.840;9.188;2022-07-23T14:27:25;2.75;;;2.55;;
11598;SDS011;5855;48.840;9.188;2022-07-23T14:29:54;3.38;;;3.00;;
11598;SDS011;5855;48.840;9.188;2022-07-23T14:32:22;2.75;;;2.55;;
11598;SDS011;5855;48.840;9.188;2022-07-23T14:34:49;2.90;;;2.70;;
11598;SDS011;5855;48.840;9.188;2022-07-23T14:37:16;3.25;;;2.95;;
11598;SDS011;5855;48.840;9.188;2022-07-23T14:39:44;3.08;;;2.78;;
11598;SDS011;5855;48.840;9.188;2022-07-23T14:42:11;3.20;;;2.90;;
11598;SDS011;5855;48.840;9.188;2022-07-23T14:44:38;4.43;;;2.50;;
11598;SDS011;5855;48.840;9.188;2022-07-23T14:47:08;3.90;;;2.55;;
11598;SDS011;5855;48.840;9.188;2022-07-23T14:49:36;2.70;;;2.50;;
11598;SDS011;5855;48.840;9.188;2022-07-23T14:52:03;2.97;;;2.50;;
11598;SDS011;5855;48.840;9.188;2022-07-23T14:54:31;3.13;;;2.78;;
11598;SDS011;5855;48.840;9.188;2022-07-23T14:56:59;3.40;;;2.92;;
11598;SDS011;5855;48.840;9.188;2022-07-23T14:59:27;3.35;;;3.05;;
11598;SDS011;5855;48.840;9.188;2022-07-23T15:01:55;3.42;;;3.13;;
11598;SDS011;5855;48.840;9.188;2022-07-23T15:04:24;3.08;;;2.78;;
11598;SDS011;5855;48.840;9.188;2022-07-23T15:06:51;3.15;;;2.95;;
11598;SDS011;5855;48.840;9.188;2022-07-23T15:09:17;3.30;;;3.00;;
11598;SDS011;5855;48.840;9.188;2022-07-23T15:11:44;4.47;;;2.97;;
11598;SDS011;5855;48.840;9.188;2022-07-23T15:14:12;3.00;;;2.80;;
11598;SDS011;5855;48.840;9.188;2022-07-23T15:16:39;3.28;;;2.97;;
11598;SDS011;5855;48.840;9.188;2022-07-23T15:19:06;3.30;;;3.00;;
11598;SDS011;5855;48.840;9.188;2022-07-23T15:21:34;4.55;;;2.80;;